createdAt,value
2022-07-28T03:46:59.242Z,2.53
2022-07-28T03:49:26.037Z,3.10
2022-07-28T03:51:54.260Z,2.83
2022-07-28T03:54:21.155Z,3.10
2022-07-28T03:56:47.957Z,2.90
2022-07-28T03:59:14.796Z,2.97
2022-07-28T04:01:41.648Z,3.40
2022-07-28T04:04:08.443Z,2.90
2022-07-28T04:06:35.196Z,2.92
2022-07-28T04:09:02.217Z,3.35
2022-07-28T04:11:28.976Z,3.22
2022-07-28T04:13:56.462Z,2.63
2022-07-28T04:16:24.195Z,3.70
2022-07-28T04:18:51.068Z,3.33
2022-07-28T04:21:17.809Z,3.72
2022-07-28T04:23:44.600Z,3.60
2022-07-28T04:26:11.417Z,3.47
2022-07-28T04:28:38.303Z,3.55
2022-07-28T04:31:05.309Z,3.60
2022-07-28T04:33:32.388Z,3.30
2022-07-28T04:36:01.605Z,3.42
2022-07-28T04:38:29.075Z,8.93
2022-07-28T04:40:55.961Z,8.23
2022-07-28T04:43:23.102Z,7.18
2022-07-28T04:45:53.248Z,5.22
2022-07-28T04:48:20.469Z,4.15
2022-07-28T04:50:47.348Z,4.00
2022-07-28T04:53:14.157Z,4.75
2022-07-28T04:55:41.037Z,4.70
2022-07-28T04:58:09.351Z,4.25
2022-07-28T05:00:43.485Z,3.97
2022-07-28T05:03:11.668Z,3.72
2022-07-28T05:05:38.438Z,4.20
2022-07-28T05:08:05.611Z,3.88
2022-07-28T05:10:32.437Z,3.78
2022-07-28T05:13:04.036Z,3.63
2022-07-28T05:15:30.828Z,4.40
2022-07-28T05:17:57.608Z,4.10
2022-07-28T05:20:24.462Z,5.97
2022-07-28T05:22:53.549Z,4.88
2022-07-28T05:25:23.608Z,3.65
2022-07-28T05:27:51.310Z,3.70
2022-07-28T05:30:18.823Z,3.35
2022-07-28T05:32:46.468Z,3.67
2022-07-28T05:35:13.610Z,4.47
2022-07-28T05:37:40.558Z,4.00
2022-07-28T05:40:15.928Z,3.92
2022-07-28T05:42:43.439Z,3.63
2022-07-28T05:45:16.615Z,4.00
2022-07-28T05:47:46.441Z,3.45
2022-07-28T05:50:17.790Z,3.63
2022-07-28T05:52:45.131Z,4.07
2022-07-28T05:55:12.257Z,3.97
2022-07-28T05:57:40.028Z,4.05
2022-07-28T06:00:13.061Z,3.80
2022-07-28T06:02:40.905Z,3.42
2022-07-28T06:05:08.129Z,4.00
2022-07-28T06:07:42.400Z,3.75
2022-07-28T06:10:11.957Z,3.92
2022-07-28T06:12:44.016Z,4.20
2022-07-28T06:15:16.313Z,4.70
2022-07-28T06:17:43.314Z,4.00
2022-07-28T06:20:11.342Z,3.95
2022-07-28T06:22:52.574Z,3.97
2022-07-28T06:25:22.798Z,4.05
2022-07-28T06:27:54.454Z,4.13
2022-07-28T06:30:21.441Z,4.15
2022-07-28T06:32:48.809Z,4.10
2022-07-28T06:35:16.912Z,4.32
2022-07-28T06:37:48.098Z,4.22
2022-07-28T06:40:16.051Z,4.45
2022-07-28T06:42:45.150Z,4.38
2022-07-28T06:45:20.671Z,4.28
2022-07-28T06:47:49.835Z,4.18
2022-07-28T06:50:25.765Z,4.20
2022-07-28T06:52:57.183Z,4.50
2022-07-28T06:55:28.439Z,3.93
2022-07-28T06:58:02.738Z,4.30
2022-07-28T07:00:29.776Z,4.55
2022-07-28T07:02:56.714Z,3.83
2022-07-28T07:05:23.736Z,4.18
2022-07-28T07:07:50.598Z,4.07
2022-07-28T07:10:17.547Z,4.38
2022-07-28T07:12:44.330Z,4.30
2022-07-28T07:15:12.098Z,4.15
2022-07-28T07:17:39.145Z,4.13
2022-07-28T07:20:07.505Z,4.60
2022-07-28T07:22:35.462Z,3.97
2022-07-28T07:25:13.780Z,4.38
2022-07-28T07:27:40.963Z,3.97
2022-07-28T07:30:09.032Z,4.38
2022-07-28T07:32:37.013Z,4.60
2022-07-28T07:35:04.609Z,3.72
2022-07-28T07:37:34.310Z,3.75
2022-07-28T07:40:02.620Z,4.55
2022-07-28T07:42:29.522Z,4.10
2022-07-28T07:44:56.534Z,4.38
2022-07-28T07:47:23.445Z,4.20
2022-07-28T07:49:50.404Z,4.18
2022-07-28T07:52:17.278Z,4.35
2022-07-28T07:54:44.180Z,4.70
2022-07-28T07:57:11.298Z,4.18
2022-07-28T07:59:38.258Z,4.15
2022-07-28T08:02:05.563Z,3.72
2022-07-28T08:04:37.399Z,3.70
2022-07-28T08:07:06.055Z,3.97
2022-07-28T08:09:33.685Z,4.65
2022-07-28T08:12:00.609Z,3.90
2022-07-28T08:14:27.621Z,4.28
2022-07-28T08:16:56.647Z,4.20
2022-07-28T08:19:23.772Z,4.20
2022-07-28T08:21:51.201Z,4.45
2022-07-28T08:24:32.780Z,3.63
2022-07-28T08:27:04.575Z,4.53
2022-07-28T08:29:31.980Z,4.15
2022-07-28T08:31:59.143Z,3.72
2022-07-28T08:34:33.207Z,4.20
2022-07-28T08:37:05.514Z,5.00
2022-07-28T08:39:33.471Z,4.20
2022-07-28T08:42:06.045Z,4.20
2022-07-28T08:44:50.674Z,3.95
2022-07-28T08:47:19.606Z,4.28
2022-07-28T08:49:48.789Z,4.55
2022-07-28T08:52:18.502Z,3.72
2022-07-28T08:54:46.750Z,4.05
2022-07-28T08:57:35.585Z,4.47
2022-07-28T09:00:03.755Z,5.20
2022-07-28T09:02:33.079Z,4.25
2022-07-28T09:05:00.287Z,3.65
2022-07-28T09:07:27.664Z,3.53
2022-07-28T09:09:57.338Z,4.55
2022-07-28T09:12:29.872Z,4.50
2022-07-28T09:14:56.803Z,4.40
2022-07-28T09:17:23.771Z,4.00
2022-07-28T09:19:50.689Z,3.90
2022-07-28T09:22:17.729Z,4.30
2022-07-28T09:24:45.868Z,4.05
2022-07-28T09:27:15.449Z,3.92
2022-07-28T09:29:48.421Z,4.00
2022-07-28T09:32:19.156Z,3.40
2022-07-28T09:34:47.815Z,3.45
2022-07-28T09:37:24.750Z,3.60
2022-07-28T09:39:58.002Z,3.70
2022-07-28T09:42:25.913Z,3.60
2022-07-28T09:45:25.575Z,3.50
2022-07-28T09:48:25.382Z,4.00
2022-07-28T09:50:52.562Z,3.50
2022-07-28T09:53:28.264Z,3.65
2022-07-28T09:55:56.677Z,4.00
2022-07-28T09:58:23.653Z,3.65
2022-07-28T10:01:08.331Z,3.65
2022-07-28T10:03:48.644Z,3.67
2022-07-28T10:06:17.029Z,3.63
2022-07-28T10:08:45.647Z,3.45
2022-07-28T10:11:14.922Z,3.88
2022-07-28T10:13:58.489Z,3.35
2022-07-28T10:16:27.400Z,3.22
2022-07-28T10:18:55.524Z,3.17
2022-07-28T10:21:24.086Z,3.28
2022-07-28T10:23:52.591Z,3.65
2022-07-28T10:26:37.612Z,3.53
2022-07-28T10:29:07.862Z,3.30
2022-07-28T10:31:43.654Z,2.50
2022-07-28T10:34:20.567Z,3.55
2022-07-28T10:36:55.906Z,2.80
2022-07-28T10:39:25.996Z,2.75
2022-07-28T10:41:54.159Z,2.42
2022-07-28T10:44:21.653Z,2.40
2022-07-28T10:46:49.871Z,2.72
2022-07-28T10:49:17.490Z,2.65
2022-07-28T10:52:02.421Z,2.30
2022-07-28T10:55:03.451Z,2.80
2022-07-28T10:57:33.028Z,2.78
2022-07-28T11:00:24.524Z,2.90
2022-07-28T11:02:59.109Z,2.47
2022-07-28T11:05:41.339Z,2.58
2022-07-28T11:08:18.353Z,2.40
2022-07-28T11:10:51.192Z,2.30
2022-07-28T11:13:33.018Z,2.40
2022-07-28T11:16:18.020Z,2.80
2022-07-28T11:19:07.909Z,2.40
2022-07-28T11:22:15.076Z,2.05
2022-07-28T11:25:20.730Z,2.00
2022-07-28T11:27:51.882Z,2.30
2022-07-28T11:30:19.556Z,2.60
2022-07-28T11:32:53.546Z,2.30
2022-07-28T11:35:31.364Z,2.20
2022-07-28T11:38:01.514Z,2.30
2022-07-28T11:40:45.953Z,2.13
2022-07-28T11:43:35.818Z,2.20
2022-07-28T11:46:07.795Z,2.17
2022-07-28T11:48:42.044Z,2.45
2022-07-28T11:51:13.338Z,2.20
2022-07-28T11:53:41.576Z,2.58
2022-07-28T11:56:13.824Z,2.70
2022-07-28T11:58:42.115Z,2.30
2022-07-28T12:01:20.114Z,2.50
2022-07-28T12:03:55.285Z,2.35
2022-07-28T12:06:27.177Z,2.25
2022-07-28T12:09:01.116Z,2.05
2022-07-28T12:11:33.423Z,2.40
2022-07-28T12:14:08.610Z,3.03
2022-07-28T12:16:38.702Z,2.30
2022-07-28T12:19:08.303Z,2.30
2022-07-28T12:21:58.649Z,1.95
2022-07-28T12:24:31.470Z,2.33
2022-07-28T12:27:00.584Z,1.90
2022-07-28T12:29:35.826Z,2.50
2022-07-28T12:32:10.138Z,2.38
2022-07-28T12:34:39.949Z,2.50
2022-07-28T12:37:12.517Z,2.33
2022-07-28T12:39:42.723Z,2.42
2022-07-28T12:42:12.366Z,2.00
2022-07-28T12:44:48.122Z,2.28
2022-07-28T12:47:17.713Z,1.98
2022-07-28T12:49:45.311Z,2.40
2022-07-28T12:52:23.282Z,2.20
2022-07-28T12:54:54.805Z,2.15
2022-07-28T12:57:48.715Z,2.35
2022-07-28T13:00:21.235Z,2.25
2022-07-28T13:02:50.552Z,2.00
2022-07-28T13:05:32.938Z,2.22
2022-07-28T13:08:05.287Z,2.38
2022-07-28T13:10:33.145Z,2.28
2022-07-28T13:13:05.948Z,2.10
2022-07-28T13:15:33.527Z,2.20
2022-07-28T13:18:00.678Z,3.90
2022-07-28T13:20:27.811Z,2.10
2022-07-28T13:22:56.086Z,2.00
2022-07-28T13:25:23.204Z,2.42
2022-07-28T13:27:54.903Z,2.20
2022-07-28T13:32:50.697Z,2.13
2022-07-28T13:35:19.021Z,2.20
2022-07-28T13:37:47.980Z,2.42
2022-07-28T13:40:14.925Z,2.80
2022-07-28T13:42:52.860Z,2.83
2022-07-28T13:45:22.186Z,2.45
2022-07-28T13:47:52.361Z,2.35
2022-07-28T13:50:20.855Z,2.17
2022-07-28T13:52:48.251Z,2.20
2022-07-28T13:55:17.594Z,2.47
2022-07-28T13:57:49.151Z,2.90
2022-07-28T14:00:18.577Z,2.30
2022-07-28T14:02:47.151Z,2.20
2022-07-28T14:05:14.598Z,2.25
2022-07-28T14:07:42.718Z,2.22
2022-07-28T14:10:15.685Z,2.13
2022-07-28T14:12:42.560Z,2.20
2022-07-28T14:15:13.514Z,2.42
2022-07-28T14:17:43.291Z,2.33
2022-07-28T14:20:13.000Z,2.15
2022-07-28T14:22:39.927Z,2.60
2022-07-28T14:25:07.233Z,2.33
2022-07-28T14:27:34.309Z,2.33
2022-07-28T14:30:03.280Z,2.33
2022-07-28T14:32:31.022Z,2.60
2022-07-28T14:34:57.748Z,2.33
2022-07-28T14:37:25.074Z,2.72
2022-07-28T14:39:51.856Z,2.30
2022-07-28T14:42:18.733Z,2.55
2022-07-28T14:44:45.448Z,2.40
2022-07-28T14:47:12.395Z,2.58
2022-07-28T14:49:58.234Z,2.40
2022-07-28T14:52:26.697Z,2.35
2022-07-28T14:54:54.429Z,2.33
2022-07-28T14:57:21.375Z,2.30
2022-07-28T15:00:09.962Z,2.10
2022-07-28T15:02:36.787Z,2.47
2022-07-28T15:05:04.064Z,2.58
2022-07-28T15:07:30.879Z,2.47
2022-07-28T15:09:57.768Z,2.40
2022-07-28T15:12:24.856Z,2.50
2022-07-28T15:14:51.725Z,2.22
2022-07-28T15:17:19.627Z,2.20
2022-07-28T15:19:47.073Z,2.60
2022-07-28T15:22:14.141Z,2.45
2022-07-28T15:24:42.151Z,1.85
2022-07-28T15:27:12.626Z,2.20
2022-07-28T15:29:39.490Z,2.05
2022-07-28T15:32:12.333Z,2.47
2022-07-28T15:34:39.900Z,2.22
2022-07-28T15:37:07.072Z,2.50
2022-07-28T15:39:34.147Z,2.30
2022-07-28T15:42:01.400Z,2.50
2022-07-28T15:44:29.847Z,2.30
2022-07-28T15:46:56.688Z,2.65
2022-07-28T15:49:23.738Z,2.60
2022-07-28T15:51:50.539Z,2.63
2022-07-28T15:54:18.642Z,2.40
2022-07-28T15:56:45.836Z,2.53
2022-07-28T15:59:12.706Z,2.58
2022-07-28T16:01:45.024Z,2.72
2022-07-28T16:04:12.749Z,2.60
2022-07-28T16:06:58.758Z,2.50
2022-07-28T16:09:25.554Z,2.55
2022-07-28T16:12:14.413Z,2.78
2022-07-28T16:14:42.289Z,2.40
2022-07-28T16:17:09.806Z,2.53
2022-07-28T16:19:49.016Z,2.60
2022-07-28T16:22:18.317Z,2.70
2022-07-28T16:24:45.697Z,2.60
2022-07-28T16:27:12.467Z,2.60
2022-07-28T16:29:39.290Z,2.90
2022-07-28T16:32:06.117Z,2.45
2022-07-28T16:34:32.858Z,2.45
2022-07-28T16:36:59.556Z,2.70
2022-07-28T16:39:26.261Z,2.53
2022-07-28T16:41:53.225Z,2.90
2022-07-28T16:44:20.504Z,2.75
2022-07-28T16:46:47.672Z,2.70
2022-07-28T16:49:15.924Z,2.47
2022-07-28T16:51:43.305Z,2.70
2022-07-28T16:54:10.048Z,2.88
2022-07-28T16:56:36.801Z,2.80
2022-07-28T16:59:03.723Z,2.75
2022-07-28T17:01:30.699Z,3.00
2022-07-28T17:03:57.501Z,2.50
2022-07-28T17:06:24.771Z,2.40
2022-07-28T17:08:51.553Z,2.63
2022-07-28T17:11:18.318Z,2.90
2022-07-28T17:13:45.634Z,2.72
2022-07-28T17:16:13.160Z,3.20
2022-07-28T17:18:40.256Z,2.83
2022-07-28T17:21:07.019Z,2.63
2022-07-28T17:23:36.405Z,2.70
2022-07-28T17:28:54.022Z,3.00
2022-07-28T17:31:21.072Z,2.75
2022-07-28T17:33:47.836Z,2.97
2022-07-28T17:36:15.818Z,2.45
2022-07-28T17:38:45.532Z,2.60
2022-07-28T17:41:12.554Z,3.00
2022-07-28T17:43:45.167Z,2.85
2022-07-28T17:46:12.714Z,2.65
2022-07-28T17:48:40.009Z,2.85
2022-07-28T17:51:07.003Z,3.17
2022-07-28T17:53:39.078Z,2.70
2022-07-28T17:56:08.536Z,2.75
2022-07-28T17:58:35.660Z,3.05
2022-07-28T18:01:09.531Z,2.65
2022-07-28T18:04:00.035Z,2.90
2022-07-28T18:06:35.785Z,2.88
2022-07-28T18:09:06.740Z,2.85
2022-07-28T18:11:55.502Z,2.92
2022-07-28T18:14:29.321Z,2.97
2022-07-28T18:16:57.322Z,3.55
2022-07-28T18:19:24.534Z,2.95
2022-07-28T18:21:51.372Z,3.03
2022-07-28T18:24:18.574Z,3.22
2022-07-28T18:26:45.729Z,2.97
2022-07-28T18:29:12.482Z,2.55
2022-07-28T18:31:45.882Z,3.20
2022-07-28T18:34:14.103Z,3.22
2022-07-28T18:36:41.185Z,3.30
2022-07-28T18:39:08.519Z,3.13
2022-07-28T18:41:47.013Z,2.97
2022-07-28T18:44:15.642Z,3.60
2022-07-28T18:46:42.740Z,3.22
2022-07-28T18:49:09.565Z,3.67
2022-07-28T18:51:36.772Z,3.70
2022-07-28T18:54:03.776Z,3.40
2022-07-28T18:56:31.681Z,3.33
2022-07-28T18:58:58.413Z,3.33
2022-07-28T19:01:25.187Z,3.35
2022-07-28T19:03:51.933Z,3.55
2022-07-28T19:06:18.803Z,3.88
2022-07-28T19:08:45.514Z,3.63
2022-07-28T19:11:13.519Z,3.80
2022-07-28T19:13:41.919Z,3.80
2022-07-28T19:16:08.758Z,4.20
2022-07-28T19:18:35.573Z,3.67
2022-07-28T19:21:02.282Z,3.38
2022-07-28T19:23:30.286Z,3.67
2022-07-28T19:25:58.003Z,3.40
2022-07-28T19:28:24.745Z,4.07
2022-07-28T19:30:51.570Z,3.50
2022-07-28T19:33:19.497Z,4.13
2022-07-28T19:35:46.446Z,3.45
2022-07-28T19:38:13.379Z,3.60
2022-07-28T19:40:43.003Z,4.10
2022-07-28T19:43:12.790Z,3.72
2022-07-28T19:45:39.611Z,3.85
2022-07-28T19:48:07.404Z,3.63
2022-07-28T19:50:36.136Z,3.35
2022-07-28T19:53:03.137Z,3.95
2022-07-28T19:55:36.227Z,3.95
2022-07-28T19:58:03.486Z,3.70
2022-07-28T20:00:30.252Z,3.38
2022-07-28T20:02:57.227Z,3.58
2022-07-28T20:05:24.260Z,3.40
2022-07-28T20:07:51.029Z,3.92
2022-07-28T20:10:17.978Z,4.07
2022-07-28T20:12:45.393Z,4.18
2022-07-28T20:15:12.909Z,4.18
2022-07-28T20:17:40.277Z,4.38
2022-07-28T20:20:13.460Z,4.15
2022-07-28T20:22:41.369Z,3.80
2022-07-28T20:25:09.997Z,4.03
2022-07-28T20:27:40.128Z,4.43
2022-07-28T20:30:10.158Z,4.15
2022-07-28T20:32:37.616Z,3.92
2022-07-28T20:35:05.463Z,4.10
2022-07-28T20:37:35.879Z,3.92
2022-07-28T20:40:07.497Z,4.10
2022-07-28T20:42:34.883Z,4.10
2022-07-28T20:45:01.730Z,4.03
2022-07-28T20:47:31.514Z,3.92
2022-07-28T20:49:58.244Z,3.92
2022-07-28T20:52:25.082Z,4.03
2022-07-28T20:54:54.528Z,4.05
2022-07-28T20:57:22.639Z,3.67
2022-07-28T20:59:51.201Z,3.78
2022-07-28T21:02:21.912Z,3.80
2022-07-28T21:04:50.137Z,3.90
2022-07-28T21:07:18.137Z,3.60
2022-07-28T21:10:06.469Z,3.25
2022-07-28T21:12:33.859Z,3.67
2022-07-28T21:15:00.683Z,3.20
2022-07-28T21:17:27.429Z,3.83
2022-07-28T21:19:54.179Z,3.85
2022-07-28T21:22:22.672Z,3.88
2022-07-28T21:24:53.201Z,4.03
2022-07-28T21:27:22.295Z,4.53
2022-07-28T21:29:49.089Z,4.10
2022-07-28T21:32:15.834Z,4.18
2022-07-28T21:34:42.615Z,3.95
2022-07-28T21:37:11.494Z,3.90
2022-07-28T21:39:39.094Z,4.00
2022-07-28T21:42:08.325Z,3.80
2022-07-28T21:44:38.756Z,3.80
2022-07-28T21:47:05.605Z,4.55
2022-07-28T21:49:32.608Z,4.38
2022-07-28T21:51:59.596Z,4.28
2022-07-28T21:54:26.642Z,4.25
2022-07-28T21:56:53.370Z,4.35
2022-07-28T21:59:20.223Z,3.78
2022-07-28T22:01:47.211Z,4.80
2022-07-28T22:04:14.414Z,4.38
2022-07-28T22:06:41.416Z,4.47
2022-07-28T22:09:13.589Z,4.80
2022-07-28T22:11:40.322Z,4.63
2022-07-28T22:14:07.011Z,4.30
2022-07-28T22:16:33.820Z,4.38
2022-07-28T22:19:00.594Z,4.53
2022-07-28T22:21:27.505Z,4.25
2022-07-28T22:23:54.214Z,4.38
2022-07-28T22:26:20.976Z,4.00
2022-07-28T22:28:47.698Z,4.70
2022-07-28T22:31:14.937Z,4.50
2022-07-28T22:33:41.717Z,4.13
2022-07-28T22:36:09.047Z,3.63
2022-07-28T22:38:36.233Z,4.07
2022-07-28T22:41:03.290Z,3.97
2022-07-28T22:43:32.990Z,3.60
2022-07-28T22:45:59.942Z,4.63
2022-07-28T22:48:26.946Z,4.38
2022-07-28T22:50:53.666Z,4.15
2022-07-28T22:53:20.445Z,4.65
2022-07-28T22:55:47.243Z,4.40
2022-07-28T22:58:13.934Z,4.60
